Time;durP1;ratioP1;P1;durP2;ratioP2;P2;SDS_P1;SDS_P2;PMS_P1;PMS_P2;Temp;Humidity;BMP_temperature;BMP_pressure;BME280_temperature;BME280_humidity;BME280_pressure;Samples;Min_cycle;Max_cycle;Signal;HPM_P1;HPM_P2
2023/04/28 00:01:11;;;;;;;6.97;4.23;;;5.30;99.90;;;;;;5030538;28;21298;-89
2023/04/28 00:03:38;;;;;;;6.53;4.80;;;5.80;99.90;;;;;;5040247;28;20226;-89
2023/04/28 00:06:05;;;;;;;6.67;4.33;;;5.30;99.90;;;;;;5033257;28;20249;-89
2023/04/28 00:08:34;;;;;;;7.20;4.80;;;5.30;99.90;;;;;;5033854;28;20843;-89
2023/04/28 00:11:01;;;;;;;12.30;4.70;;;5.20;99.90;;;;;;5031570;28;20872;-89
2023/04/28 00:13:28;;;;;;;9.50;4.30;;;5.10;99.90;;;;;;5026440;28;20196;-89
2023/04/28 00:15:55;;;;;;;10.00;4.70;;;5.20;99.90;;;;;;5041677;28;20944;-90
2023/04/28 00:18:22;;;;;;;6.73;5.10;;;5.20;99.90;;;;;;5053040;28;20206;-89
2023/04/28 00:20:49;;;;;;;7.70;4.67;;;5.20;99.90;;;;;;5032059;28;20204;-90
2023/04/28 00:23:16;;;;;;;7.13;4.60;;;5.10;99.90;;;;;;5022698;28;20304;-90
2023/04/28 00:25:50;;;;;;;6.97;4.47;;;5.10;99.90;;;;;;5024272;28;20239;-89
2023/04/28 00:28:17;;;;;;;5.67;4.67;;;5.10;99.90;;;;;;5047089;28;20207;-89
2023/04/28 00:30:44;;;;;;;7.10;4.40;;;5.10;99.90;;;;;;5034512;28;20190;-88
2023/04/28 00:33:11;;;;;;;7.90;4.80;;;5.20;99.90;;;;;;5050194;28;20278;-90
2023/04/28 00:35:38;;;;;;;7.80;4.63;;;5.20;99.90;;;;;;5053645;28;20247;-90
2023/04/28 00:38:05;;;;;;;7.30;4.70;;;5.20;99.90;;;;;;5029934;28;20294;-90
2023/04/28 00:40:36;;;;;;;9.43;5.03;;;5.20;99.90;;;;;;5057196;28;20198;-90
2023/04/28 00:43:05;;;;;;;5.10;4.23;;;5.10;99.90;;;;;;5043860;28;20712;-89
2023/04/28 00:45:32;;;;;;;10.90;4.80;;;5.10;99.90;;;;;;5044028;28;20201;-89
2023/04/28 00:47:59;;;;;;;6.17;4.90;;;5.10;99.90;;;;;;5040930;28;20207;-90
2023/04/28 00:50:26;;;;;;;7.77;4.50;;;5.10;99.90;;;;;;5053758;28;20203;-89
2023/04/28 00:52:54;;;;;;;5.43;4.40;;;5.10;99.90;;;;;;5020808;28;22335;-89
2023/04/28 00:55:21;;;;;;;7.30;4.97;;;5.10;99.90;;;;;;5053631;28;20212;-88
2023/04/28 00:57:48;;;;;;;6.03;4.70;;;5.00;99.90;;;;;;5038983;28;20197;-88
2023/04/28 01:00:17;;;;;;;6.80;4.20;;;5.10;99.90;;;;;;5042638;28;20211;-89
2023/04/28 01:02:44;;;;;;;6.73;4.53;;;5.00;99.90;;;;;;5052695;28;20203;-91
2023/04/28 01:05:13;;;;;;;8.03;4.70;;;5.20;99.90;;;;;;5041571;28;20295;-91
2023/04/28 01:07:40;;;;;;;6.40;5.00;;;5.00;99.90;;;;;;5028891;28;20205;-90
2023/04/28 01:10:09;;;;;;;6.50;4.80;;;4.90;99.90;;;;;;5042953;28;20204;-90
2023/04/28 01:12:36;;;;;;;8.10;4.73;;;4.80;99.90;;;;;;5043493;28;20230;-90
2023/04/28 01:15:04;;;;;;;7.07;4.73;;;4.80;99.90;;;;;;5046876;28;20655;-90
2023/04/28 01:17:32;;;;;;;7.47;4.93;;;4.70;99.90;;;;;;5032641;28;20197;-89
2023/04/28 01:20:00;;;;;;;8.13;4.97;;;4.80;99.90;;;;;;5038861;28;21191;-91
2023/04/28 01:22:26;;;;;;;8.57;5.20;;;4.70;99.90;;;;;;5038303;28;20205;-90
2023/04/28 01:24:56;;;;;;;7.00;5.10;;;4.70;99.90;;;;;;5027300;28;20224;-90
2023/04/28 01:27:23;;;;;;;7.10;4.60;;;4.60;99.90;;;;;;5040249;28;20840;-90
2023/04/28 01:29:50;;;;;;;8.13;4.97;;;4.60;99.90;;;;;;5049488;28;20244;-90
2023/04/28 01:32:17;;;;;;;9.70;5.33;;;4.60;99.90;;;;;;5040472;28;20200;-91
2023/04/28 01:34:44;;;;;;;7.07;5.00;;;4.60;99.90;;;;;;5042142;28;20201;-90
2023/04/28 01:37:12;;;;;;;6.13;4.67;;;4.70;99.90;;;;;;5026275;28;20255;-90
2023/04/28 01:39:39;;;;;;;5.93;4.90;;;4.70;99.90;;;;;;5022746;28;20694;-88
2023/04/28 01:42:08;;;;;;;9.10;5.20;;;4.70;99.90;;;;;;5024418;28;21006;-91
2023/04/28 01:44:35;;;;;;;8.20;4.73;;;4.70;99.90;;;;;;5046295;28;20214;-91
2023/04/28 01:47:02;;;;;;;14.07;6.37;;;4.70;99.90;;;;;;5036539;28;20319;-91
2023/04/28 01:49:29;;;;;;;9.77;5.90;;;5.50;99.90;;;;;;5050047;28;20224;-89
2023/04/28 01:51:56;;;;;;;12.40;6.00;;;4.70;99.90;;;;;;5032596;28;20209;-90
2023/04/28 01:54:23;;;;;;;7.57;5.80;;;4.70;99.90;;;;;;5016532;28;20202;-90
2023/04/28 01:56:50;;;;;;;8.23;5.13;;;4.70;99.90;;;;;;5046302;28;20284;-91
2023/04/28 01:59:19;;;;;;;9.50;6.00;;;4.60;99.90;;;;;;5011043;28;20205;-91
2023/04/28 02:01:46;;;;;;;7.97;5.57;;;4.50;99.90;;;;;;5028314;28;20205;-87
2023/04/28 02:04:13;;;;;;;9.77;5.43;;;4.50;99.90;;;;;;5040942;28;20222;-91
2023/04/28 02:06:40;;;;;;;12.20;6.23;;;4.50;99.90;;;;;;5048629;28;20196;-90
2023/04/28 02:09:08;;;;;;;9.47;6.20;;;4.40;99.90;;;;;;5031533;28;20209;-91
2023/04/28 02:11:35;;;;;;;10.03;6.60;;;4.40;99.90;;;;;;5029075;28;20317;-90
2023/04/28 02:14:02;;;;;;;9.70;7.27;;;4.40;99.90;;;;;;5035295;28;20476;-90
2023/04/28 02:16:31;;;;;;;9.30;6.57;;;4.50;99.90;;;;;;5042327;28;20248;-89
2023/04/28 02:18:58;;;;;;;9.73;6.40;;;4.60;99.90;;;;;;5029488;28;20204;-90
2023/04/28 02:21:26;;;;;;;9.50;6.13;;;4.50;99.90;;;;;;5028944;28;20204;-91
2023/04/28 02:23:53;;;;;;;13.07;6.60;;;4.50;99.90;;;;;;5017445;28;20225;-90
2023/04/28 02:26:21;;;;;;;11.17;7.03;;;4.50;99.90;;;;;;5017168;28;21006;-90
2023/04/28 02:28:49;;;;;;;11.10;7.30;;;4.60;99.90;;;;;;5031685;28;20204;-90
2023/04/28 02:31:16;;;;;;;13.60;7.20;;;4.60;99.90;;;;;;5049961;28;20545;-90
2023/04/28 02:33:45;;;;;;;13.83;7.13;;;4.60;99.90;;;;;;5038668;28;20224;-89
2023/04/28 02:36:12;;;;;;;10.50;7.37;;;4.70;99.90;;;;;;5049049;28;20294;-89
2023/04/28 02:38:40;;;;;;;11.57;7.67;;;4.60;99.90;;;;;;5035113;28;20213;-91
2023/04/28 02:41:09;;;;;;;15.43;7.50;;;4.50;99.90;;;;;;5032712;28;20241;-90
2023/04/28 02:43:36;;;;;;;10.63;7.47;;;4.50;99.90;;;;;;5015826;28;20228;-90
2023/04/28 02:46:04;;;;;;;16.83;7.87;;;4.60;99.90;;;;;;5020119;28;20211;-90
2023/04/28 02:48:34;;;;;;;15.97;7.97;;;4.50;99.90;;;;;;5044479;28;20277;-91
2023/04/28 02:51:02;;;;;;;12.60;7.40;;;4.50;99.90;;;;;;5048149;28;20386;-91
2023/04/28 02:53:30;;;;;;;12.47;7.60;;;4.50;99.90;;;;;;5051255;28;20867;-90
2023/04/28 02:55:57;;;;;;;13.23;7.70;;;3.70;99.90;;;;;;5019312;28;20233;-91
2023/04/28 02:58:24;;;;;;;11.53;7.17;;;4.60;99.90;;;;;;5034125;28;20205;-90
2023/04/28 03:00:51;;;;;;;13.13;7.87;;;4.60;99.90;;;;;;5036444;28;20699;-91
2023/04/28 03:03:18;;;;;;;14.40;7.07;;;4.60;99.90;;;;;;5040480;28;20262;-90
2023/04/28 03:05:45;;;;;;;10.90;7.33;;;4.50;99.90;;;;;;5028995;28;20309;-90
2023/04/28 03:08:14;;;;;;;8.80;6.97;;;4.40;99.90;;;;;;5045417;28;20193;-91
2023/04/28 03:10:41;;;;;;;10.20;7.03;;;4.40;99.90;;;;;;5028359;28;20296;-90
2023/04/28 03:13:09;;;;;;;14.63;8.70;;;4.40;99.90;;;;;;5014140;28;20536;-90
2023/04/28 03:15:37;;;;;;;15.73;8.10;;;4.40;99.90;;;;;;5016292;28;20201;-90
2023/04/28 03:18:04;;;;;;;12.97;7.40;;;4.50;99.90;;;;;;5041932;28;20233;-90
2023/04/28 03:20:31;;;;;;;18.17;8.90;;;4.60;99.90;;;;;;5038170;28;20254;-91
2023/04/28 03:22:58;;;;;;;11.83;8.07;;;4.60;99.90;;;;;;5019721;28;20197;-91
2023/04/28 03:25:27;;;;;;;12.37;7.87;;;4.50;99.90;;;;;;5031766;28;20233;-91
2023/04/28 03:27:54;;;;;;;12.77;8.03;;;4.60;99.90;;;;;;5032766;28;20210;-90
2023/04/28 03:30:25;;;;;;;25.97;8.83;;;5.50;99.90;;;;;;5010409;28;20231;-91
2023/04/28 03:32:53;;;;;;;15.47;7.50;;;4.60;99.90;;;;;;5005574;28;20232;-91
2023/04/28 03:35:24;;;;;;;13.53;8.73;;;4.60;99.90;;;;;;5034992;28;20252;-90
2023/04/28 03:37:52;;;;;;;11.13;7.90;;;4.60;99.90;;;;;;5038006;28;20216;-90
2023/04/28 03:40:19;;;;;;;12.23;7.17;;;4.60;99.90;;;;;;5036919;28;20576;-91
2023/04/28 03:42:50;;;;;;;13.13;7.40;;;4.70;99.90;;;;;;5025372;28;20252;-87
2023/04/28 03:45:19;;;;;;;13.37;8.00;;;5.20;99.90;;;;;;5011789;28;20287;-89
2023/04/28 03:47:46;;;;;;;14.27;7.23;;;4.70;99.90;;;;;;5036406;28;20215;-92
2023/04/28 03:50:13;;;;;;;13.30;7.50;;;4.70;99.90;;;;;;5035228;28;20198;-92
2023/04/28 03:52:41;;;;;;;9.10;7.40;;;4.70;99.90;;;;;;5027763;28;20205;-93
2023/04/28 03:55:09;;;;;;;12.87;7.70;;;4.70;99.90;;;;;;5020587;28;20935;-90
2023/04/28 03:57:36;;;;;;;13.63;7.83;;;4.70;99.90;;;;;;5022575;28;20295;-90
2023/04/28 04:00:06;;;;;;;12.33;7.60;;;4.70;99.90;;;;;;5038622;28;20208;-90
2023/04/28 04:02:33;;;;;;;15.17;7.63;;;4.70;99.90;;;;;;5045613;28;20221;-93
2023/04/28 04:05:01;;;;;;;15.83;7.80;;;4.70;99.90;;;;;;5025737;28;20316;-89
2023/04/28 04:07:30;;;;;;;14.03;7.57;;;4.70;99.90;;;;;;5017558;28;20737;-90
2023/04/28 04:09:57;;;;;;;14.93;7.70;;;4.70;99.90;;;;;;5042520;28;20670;-89
2023/04/28 04:12:24;;;;;;;14.10;7.63;;;4.80;99.90;;;;;;5037848;28;20197;-91
2023/04/28 04:14:51;;;;;;;13.50;7.73;;;4.70;99.90;;;;;;5035543;28;20277;-92
2023/04/28 04:17:20;;;;;;;14.93;7.43;;;4.80;99.90;;;;;;5035326;28;20288;-95
2023/04/28 04:19:47;;;;;;;11.77;6.73;;;4.80;99.90;;;;;;5042893;28;20208;-93
2023/04/28 04:22:14;;;;;;;13.60;7.00;;;4.80;99.90;;;;;;5043226;28;20614;-92
2023/04/28 04:24:41;;;;;;;10.43;7.40;;;4.90;99.90;;;;;;5057308;28;20201;-92
2023/04/28 04:27:08;;;;;;;14.30;7.27;;;4.90;99.90;;;;;;5028379;28;20654;-94
2023/04/28 04:29:37;;;;;;;10.97;6.80;;;4.90;99.90;;;;;;5038797;28;20209;-91
2023/04/28 04:32:04;;;;;;;10.53;6.80;;;4.90;99.90;;;;;;5027474;28;20291;-95
2023/04/28 04:34:33;;;;;;;14.40;7.03;;;5.00;99.90;;;;;;5033944;28;20654;-91
2023/04/28 04:37:00;;;;;;;9.67;6.30;;;5.00;99.90;;;;;;5031307;28;20237;-91
2023/04/28 04:39:27;;;;;;;12.43;6.87;;;5.10;99.90;;;;;;5038757;28;20355;-93
2023/04/28 04:41:54;;;;;;;15.10;7.10;;;5.10;99.90;;;;;;5052914;28;20209;-92
2023/04/28 04:44:22;;;;;;;10.80;6.67;;;5.30;99.90;;;;;;5020508;28;20696;-92
2023/04/28 04:46:50;;;;;;;10.33;6.37;;;5.10;99.90;;;;;;5034171;28;20290;-95
2023/04/28 04:49:17;;;;;;;12.47;6.07;;;5.20;99.90;;;;;;5033148;28;20229;-93
2023/04/28 04:51:45;;;;;;;13.80;6.70;;;5.10;99.90;;;;;;5014033;28;20217;-92
2023/04/28 04:54:13;;;;;;;9.63;6.23;;;5.20;99.90;;;;;;5032665;28;20763;-92
2023/04/28 04:56:42;;;;;;;14.17;7.07;;;5.30;99.90;;;;;;5026003;28;20387;-92
2023/04/28 04:59:10;;;;;;;9.20;6.27;;;5.20;99.90;;;;;;5017899;28;20260;-93
2023/04/28 05:01:37;;;;;;;8.83;6.17;;;5.40;99.90;;;;;;5031649;28;20233;-92
2023/04/28 05:04:07;;;;;;;9.67;6.37;;;5.40;99.90;;;;;;5026301;28;20201;-92
2023/04/28 05:06:35;;;;;;;9.10;6.27;;;5.40;99.90;;;;;;5035458;28;22278;-93
2023/04/28 05:09:04;;;;;;;9.13;6.10;;;5.40;99.90;;;;;;5021125;28;20192;-92
2023/04/28 05:11:31;;;;;;;10.23;5.27;;;5.40;99.90;;;;;;5038771;28;20195;-92
2023/04/28 05:13:58;;;;;;;13.40;6.07;;;5.40;99.90;;;;;;5038417;28;21080;-92
2023/04/28 05:16:25;;;;;;;12.13;6.20;;;5.60;99.90;;;;;;5036009;28;20217;-92
2023/04/28 05:18:52;;;;;;;10.13;5.27;;;5.60;99.90;;;;;;5026604;28;20904;-91
2023/04/28 05:21:19;;;;;;;7.13;5.23;;;5.50;99.90;;;;;;5026611;28;20263;-92
2023/04/28 05:23:47;;;;;;;7.73;5.20;;;5.60;99.90;;;;;;5044007;28;20244;-93
2023/04/28 05:26:15;;;;;;;9.27;5.03;;;5.60;99.90;;;;;;5050236;28;20251;-94
2023/04/28 05:28:43;;;;;;;8.33;5.10;;;5.70;99.90;;;;;;5013529;28;20227;-92
2023/04/28 05:31:10;;;;;;;8.30;4.97;;;5.80;99.90;;;;;;5034656;28;20707;-93
2023/04/28 05:33:38;;;;;;;11.27;5.50;;;5.80;99.90;;;;;;5033002;28;20245;-89
2023/04/28 05:36:05;;;;;;;6.43;4.97;;;5.90;99.90;;;;;;5018518;28;20238;-92
2023/04/28 05:38:33;;;;;;;6.33;4.97;;;5.90;99.90;;;;;;5050897;28;20200;-91
2023/04/28 05:41:00;;;;;;;9.60;5.33;;;5.90;99.90;;;;;;5019371;28;20202;-92
2023/04/28 05:43:29;;;;;;;8.13;4.70;;;6.00;99.90;;;;;;5023074;28;21309;-92
2023/04/28 05:45:56;;;;;;;10.20;5.47;;;6.00;99.90;;;;;;5043044;28;20240;-90
2023/04/28 05:48:23;;;;;;;5.93;4.27;;;6.10;99.90;;;;;;5021357;28;20256;-92
2023/04/28 05:50:50;;;;;;;8.13;4.90;;;6.10;99.90;;;;;;5016340;28;20318;-92
2023/04/28 05:53:17;;;;;;;6.43;4.20;;;6.20;99.90;;;;;;5036011;28;20233;-92
2023/04/28 05:55:44;;;;;;;8.87;4.40;;;6.30;99.90;;;;;;5040283;28;20977;-91
2023/04/28 05:58:11;;;;;;;6.30;4.37;;;6.30;99.90;;;;;;5039371;28;20258;-92
2023/04/28 06:00:41;;;;;;;6.00;4.63;;;6.30;99.90;;;;;;5040285;28;20200;-90
2023/04/28 06:03:09;;;;;;;7.77;3.93;;;6.40;99.90;;;;;;5036421;28;20477;-92
2023/04/28 06:05:37;;;;;;;8.43;4.43;;;6.50;99.90;;;;;;5029033;28;20748;-91
2023/04/28 06:08:06;;;;;;;8.00;4.93;;;6.50;99.90;;;;;;5017769;28;20257;-92
2023/04/28 06:10:33;;;;;;;7.23;4.03;;;6.60;99.90;;;;;;5040618;28;20196;-91
2023/04/28 06:13:01;;;;;;;6.23;4.40;;;6.60;99.90;;;;;;5046078;28;20748;-92
2023/04/28 06:15:28;;;;;;;5.90;4.30;;;6.70;99.90;;;;;;5040658;28;20278;-92
2023/04/28 06:17:57;;;;;;;5.57;4.13;;;6.80;99.90;;;;;;5006834;28;20251;-91
2023/04/28 06:20:24;;;;;;;7.17;4.07;;;6.80;99.90;;;;;;5030481;28;20236;-95
2023/04/28 06:22:52;;;;;;;7.87;4.17;;;6.90;99.90;;;;;;5024177;28;20251;-94
2023/04/28 06:25:19;;;;;;;5.37;4.00;;;6.90;99.90;;;;;;5020942;28;20229;-93
2023/04/28 06:27:46;;;;;;;12.63;4.37;;;7.00;99.90;;;;;;5037687;28;20701;-94
2023/04/28 06:30:18;;;;;;;6.07;4.30;;;7.00;99.90;;;;;;5029778;28;20225;-94
2023/04/28 06:32:45;;;;;;;10.40;5.27;;;7.00;99.90;;;;;;5018756;28;20201;-93
2023/04/28 06:35:14;;;;;;;11.90;4.93;;;7.00;99.90;;;;;;5025171;28;21071;-94
2023/04/28 06:37:42;;;;;;;5.90;4.20;;;7.00;99.90;;;;;;5008484;28;20221;-93
2023/04/28 06:40:10;;;;;;;6.50;4.07;;;7.10;99.90;;;;;;5043429;28;20671;-93
2023/04/28 06:42:37;;;;;;;6.23;4.27;;;7.20;99.90;;;;;;5018319;28;20941;-93
2023/04/28 06:45:05;;;;;;;7.33;3.80;;;7.20;99.90;;;;;;5001012;28;20221;-93
2023/04/28 06:47:32;;;;;;;6.63;3.97;;;7.20;99.90;;;;;;5016075;28;20217;-94
2023/04/28 06:50:00;;;;;;;13.03;4.53;;;7.30;99.90;;;;;;5033352;28;20199;-93
2023/04/28 06:52:29;;;;;;;10.03;3.83;;;7.40;99.90;;;;;;5013748;28;20658;-93
2023/04/28 06:54:56;;;;;;;6.97;3.57;;;7.50;99.90;;;;;;5043277;28;20591;-92
2023/04/28 06:57:24;;;;;;;5.87;3.57;;;7.50;99.90;;;;;;5002218;28;20219;-94
2023/04/28 06:59:51;;;;;;;4.87;3.33;;;7.60;99.90;;;;;;5035665;28;20389;-94
2023/04/28 07:02:18;;;;;;;4.80;3.70;;;7.70;99.90;;;;;;5017822;28;20303;-94
2023/04/28 07:04:44;;;;;;;3.93;3.43;;;7.80;99.90;;;;;;5038366;28;20250;-94
2023/04/28 07:07:12;;;;;;;7.47;3.83;;;7.90;99.90;;;;;;5028786;28;20270;-94
2023/04/28 07:09:41;;;;;;;14.23;3.57;;;7.90;99.90;;;;;;5022179;28;20371;-94
2023/04/28 07:12:08;;;;;;;7.00;3.57;;;8.00;99.90;;;;;;5024219;28;22828;-96
2023/04/28 07:14:35;;;;;;;4.43;3.33;;;8.00;99.90;;;;;;5045547;28;20245;-96
2023/04/28 07:17:02;;;;;;;7.70;3.10;;;8.10;99.90;;;;;;5043315;28;20232;-94
2023/04/28 07:19:29;;;;;;;6.43;3.60;;;8.10;99.90;;;;;;5034395;28;20288;-95
2023/04/28 07:21:56;;;;;;;6.23;3.93;;;8.10;99.90;;;;;;5013609;28;20197;-94
2023/04/28 07:24:27;;;;;;;10.57;3.40;;;8.10;99.90;;;;;;5029098;28;20223;-96
2023/04/28 07:26:55;;;;;;;8.60;3.77;;;8.40;99.90;;;;;;5047315;28;20228;-96
2023/04/28 07:29:23;;;;;;;9.40;3.17;;;8.20;99.90;;;;;;5011937;28;20217;-96
2023/04/28 07:31:50;;;;;;;5.87;3.77;;;8.30;99.90;;;;;;5043994;28;20256;-95
2023/04/28 07:34:17;;;;;;;6.03;3.70;;;8.30;99.90;;;;;;5036160;28;20233;-96
2023/04/28 07:36:45;;;;;;;5.83;3.30;;;8.40;99.90;;;;;;5033171;28;20326;-96
2023/04/28 07:39:12;;;;;;;10.07;3.47;;;8.70;99.90;;;;;;5021506;28;20997;-95
2023/04/28 07:41:39;;;;;;;5.87;3.50;;;8.50;99.90;;;;;;5038060;28;20232;-96
2023/04/28 07:44:09;;;;;;;5.77;3.57;;;8.60;99.90;;;;;;5032063;28;20285;-92
2023/04/28 07:46:36;;;;;;;4.80;3.70;;;8.60;99.90;;;;;;5050522;22;20832;-95
2023/04/28 07:49:03;;;;;;;8.83;3.80;;;8.60;99.90;;;;;;5095306;22;20227;-96
2023/04/28 07:51:31;;;;;;;6.63;3.43;;;8.70;99.90;;;;;;5046364;28;20921;-94
2023/04/28 07:53:59;;;;;;;3.73;2.93;;;8.70;99.90;;;;;;5081351;28;20224;-95
2023/04/28 07:56:27;;;;;;;5.87;3.70;;;8.70;99.90;;;;;;5034125;28;20298;-91
2023/04/28 07:58:54;;;;;;;8.20;3.57;;;8.70;99.90;;;;;;5053444;28;21194;-92
2023/04/28 08:01:22;;;;;;;5.53;3.70;;;8.80;99.90;;;;;;5024967;28;20327;-91
2023/04/28 08:03:49;;;;;;;5.07;3.87;;;9.60;99.90;;;;;;5062062;28;20212;-92
2023/04/28 08:06:16;;;;;;;5.73;3.57;;;8.90;99.90;;;;;;5067706;28;20531;-91
2023/04/28 08:08:44;;;;;;;8.20;3.93;;;8.90;99.90;;;;;;5059290;28;20270;-93
2023/04/28 08:11:12;;;;;;;6.67;3.60;;;8.90;99.90;;;;;;5034995;28;20234;-92
2023/04/28 08:13:38;;;;;;;8.48;3.78;;;8.90;99.90;;;;;;5060439;28;20734;-91
2023/04/28 08:16:07;;;;;;;6.70;3.67;;;9.00;99.90;;;;;;5038915;28;21584;-91
2023/04/28 08:18:35;;;;;;;4.77;3.27;;;9.00;99.90;;;;;;5048084;28;20258;-91
2023/04/28 08:21:03;;;;;;;8.77;3.97;;;9.00;99.90;;;;;;5048523;28;20303;-89
2023/04/28 08:23:30;;;;;;;4.90;3.33;;;9.10;99.90;;;;;;5020647;28;20686;-88
2023/04/28 08:25:58;;;;;;;6.13;4.17;;;9.00;99.90;;;;;;5056541;28;20207;-89
2023/04/28 08:28:25;;;;;;;8.90;3.60;;;9.20;99.90;;;;;;5069164;28;20220;-90
2023/04/28 08:30:54;;;;;;;8.50;3.28;;;9.20;99.90;;;;;;5037549;28;20254;-89
2023/04/28 08:33:22;;;;;;;10.40;3.50;;;9.30;99.90;;;;;;5069663;28;20231;-90
2023/04/28 08:35:51;;;;;;;5.30;3.47;;;9.20;99.90;;;;;;5056718;28;20776;-89
2023/04/28 08:38:18;;;;;;;6.83;3.83;;;9.30;99.90;;;;;;5046174;28;20273;-90
2023/04/28 08:40:45;;;;;;;4.77;3.27;;;9.40;99.90;;;;;;5048038;28;20708;-91
2023/04/28 08:43:13;;;;;;;7.27;3.80;;;9.50;99.90;;;;;;5061256;28;20216;-96
2023/04/28 08:45:43;;;;;;;4.28;3.55;;;9.50;99.90;;;;;;5071930;28;20761;-93
2023/04/28 08:48:18;;;;;;;6.32;3.70;;;9.50;99.90;;;;;;5066646;28;20227;-90
2023/04/28 08:50:51;;;;;;;4.25;3.67;;;9.70;99.90;;;;;;5079587;27;20219;-92
2023/04/28 08:53:24;;;;;;;8.03;3.87;;;9.70;99.90;;;;;;5081191;27;20237;-91
2023/04/28 08:55:55;;;;;;;7.47;4.00;;;9.70;99.90;;;;;;5083851;27;20276;-91
2023/04/28 08:58:23;;;;;;;5.10;3.55;;;9.80;99.90;;;;;;5053749;28;20219;-91
2023/04/28 09:00:51;;;;;;;7.82;4.03;;;9.90;99.90;;;;;;5074800;28;20187;-95
2023/04/28 09:03:18;;;;;;;5.50;4.15;;;10.10;99.90;;;;;;5086361;28;20243;-92
2023/04/28 09:05:45;;;;;;;6.68;3.90;;;10.10;99.90;;;;;;5052362;28;20312;-91
2023/04/28 09:08:14;;;;;;;8.75;3.20;;;10.30;99.90;;;;;;5090287;27;20244;-90
2023/04/28 09:10:41;;;;;;;9.07;3.90;;;10.40;99.90;;;;;;5071083;28;20306;-92
2023/04/28 09:13:08;;;;;;;9.35;3.80;;;10.40;99.90;;;;;;5071881;27;20243;-89
2023/04/28 09:15:36;;;;;;;7.38;4.22;;;10.40;99.90;;;;;;5092437;28;20376;-89
2023/04/28 09:18:06;;;;;;;5.65;4.05;;;10.40;99.90;;;;;;5092311;27;20749;-90
2023/04/28 09:20:35;;;;;;;4.95;3.70;;;10.50;99.90;;;;;;5068937;27;21029;-89
2023/04/28 09:23:17;;;;;;;7.10;4.00;;;10.50;99.90;;;;;;5089965;27;20261;-90
2023/04/28 09:26:01;;;;;;;9.45;4.50;;;10.50;99.90;;;;;;5076785;27;20219;-89
2023/04/28 09:28:28;;;;;;;8.73;4.28;;;10.50;99.90;;;;;;5067326;28;20215;-90
2023/04/28 09:30:55;;;;;;;7.97;4.45;;;10.50;99.90;;;;;;5085861;27;20281;-90
2023/04/28 09:33:23;;;;;;;6.05;4.10;;;10.60;99.90;;;;;;5054242;28;20311;-89
2023/04/28 09:35:50;;;;;;;9.07;3.92;;;10.60;99.90;;;;;;5041217;28;20224;-88
2023/04/28 09:38:20;;;;;;;7.43;4.50;;;10.60;99.90;;;;;;5057660;28;20315;-88
2023/04/28 09:40:58;;;;;;;8.18;4.35;;;10.70;99.90;;;;;;5053400;28;20601;-89
2023/04/28 09:43:29;;;;;;;5.97;3.47;;;10.70;99.90;;;;;;5059913;27;20211;-89
2023/04/28 09:46:00;;;;;;;6.90;4.10;;;10.70;99.90;;;;;;5085955;27;20660;-90
2023/04/28 09:48:28;;;;;;;4.88;4.00;;;10.70;99.90;;;;;;5077957;27;20268;-90
2023/04/28 09:50:56;;;;;;;6.55;4.30;;;10.60;99.90;;;;;;5064313;28;20919;-90
2023/04/28 09:53:26;;;;;;;9.55;4.35;;;10.60;99.90;;;;;;5090030;28;20226;-91
2023/04/28 09:55:56;;;;;;;5.85;4.22;;;10.60;99.90;;;;;;5039063;28;20231;-91
2023/04/28 09:58:24;;;;;;;6.93;4.20;;;10.50;99.90;;;;;;5086045;27;20377;-89
2023/04/28 10:00:53;;;;;;;8.90;4.80;;;10.60;99.90;;;;;;5056474;28;20226;-90
2023/04/28 10:03:25;;;;;;;11.15;5.03;;;10.60;99.90;;;;;;5065126;28;20958;-90
2023/04/28 10:05:53;;;;;;;11.10;4.70;;;10.70;99.90;;;;;;5067431;28;20230;-90
2023/04/28 10:08:20;;;;;;;6.70;4.60;;;10.70;99.90;;;;;;5078028;27;20230;-90
2023/04/28 10:10:53;;;;;;;6.82;4.60;;;10.80;99.90;;;;;;5075399;28;20207;-90
2023/04/28 10:13:20;;;;;;;8.90;4.50;;;10.80;99.90;;;;;;5082626;28;20203;-89
2023/04/28 10:15:48;;;;;;;6.15;4.50;;;10.80;99.90;;;;;;5074391;28;20219;-90
2023/04/28 10:18:17;;;;;;;7.07;4.75;;;10.80;99.90;;;;;;5070400;28;20239;-91
2023/04/28 10:20:47;;;;;;;7.70;4.35;;;10.90;99.90;;;;;;5024730;28;20230;-89
2023/04/28 10:23:42;;;;;;;7.05;4.63;;;11.10;99.90;;;;;;5069055;28;20227;-90
2023/04/28 10:26:13;;;;;;;5.50;4.72;;;11.00;99.90;;;;;;5061627;27;20247;-90
2023/04/28 10:28:46;;;;;;;6.32;4.43;;;11.20;99.90;;;;;;5055967;28;20324;-93
2023/04/28 10:31:17;;;;;;;8.30;5.03;;;11.30;99.90;;;;;;5075203;27;20358;-92
2023/04/28 10:33:44;;;;;;;9.52;4.95;;;11.40;99.90;;;;;;5078518;27;20323;-93
2023/04/28 10:36:11;;;;;;;5.75;4.53;;;11.40;99.90;;;;;;5058339;28;20223;-90
2023/04/28 10:39:08;;;;;;;10.48;4.88;;;11.50;99.90;;;;;;5068301;28;20308;-90
2023/04/28 10:41:37;;;;;;;11.05;5.10;;;11.50;99.90;;;;;;5059071;28;20226;-91
2023/04/28 10:44:38;;;;;;;8.18;4.75;;;11.60;99.90;;;;;;5082608;28;20897;-91
2023/04/28 10:47:08;;;;;;;10.27;5.18;;;11.60;99.90;;;;;;5054219;28;20223;-90
2023/04/28 10:50:08;;;;;;;6.63;5.13;;;11.60;99.90;;;;;;5079519;28;20230;-91
2023/04/28 10:52:50;;;;;;;8.80;4.95;;;11.70;99.90;;;;;;5042455;28;20268;-94
2023/04/28 10:55:35;;;;;;;6.25;4.60;;;11.60;99.90;;;;;;5088433;27;20299;-96
2023/04/28 10:58:38;;;;;;;7.43;4.88;;;11.70;99.90;;;;;;5072497;27;20743;-93
2023/04/28 11:01:28;;;;;;;8.52;4.90;;;11.70;99.90;;;;;;5067847;27;20230;-91
2023/04/28 11:04:02;;;;;;;7.53;5.03;;;11.80;99.90;;;;;;5061420;28;20382;-92
2023/04/28 11:06:31;;;;;;;10.00;5.80;;;11.80;99.90;;;;;;5079511;27;20223;-91
2023/04/28 11:09:01;;;;;;;7.95;5.40;;;12.00;99.90;;;;;;5071911;28;23159;-90
2023/04/28 11:11:28;;;;;;;8.98;6.07;;;11.80;99.90;;;;;;5068949;28;20230;-93
2023/04/28 11:14:33;;;;;;;9.85;5.25;;;11.80;99.90;;;;;;5066826;27;20304;-93
2023/04/28 11:17:02;;;;;;;11.35;5.18;;;11.70;99.90;;;;;;5050599;27;20694;-92
2023/04/28 11:19:33;;;;;;;10.50;4.82;;;11.80;99.90;;;;;;5077375;27;20216;-93
2023/04/28 11:22:02;;;;;;;8.07;4.80;;;11.50;99.90;;;;;;5066196;28;20229;-93
2023/04/28 11:24:31;;;;;;;7.18;5.47;;;11.50;99.90;;;;;;5069919;27;23282;-93
2023/04/28 11:26:59;;;;;;;10.02;5.38;;;11.50;99.90;;;;;;5081750;28;20231;-93
2023/04/28 11:29:35;;;;;;;8.18;5.75;;;11.40;99.90;;;;;;5067154;28;20238;-93
2023/04/28 11:32:02;;;;;;;10.27;5.63;;;12.40;99.90;;;;;;5076533;28;20242;-94
2023/04/28 11:34:29;;;;;;;8.10;5.70;;;11.30;99.90;;;;;;5080945;28;20227;-94
2023/04/28 11:36:57;;;;;;;8.55;5.55;;;11.40;99.90;;;;;;5055813;28;20317;-93
2023/04/28 11:39:28;;;;;;;12.93;6.25;;;11.30;99.90;;;;;;5044902;28;20215;-92
2023/04/28 11:41:56;;;;;;;13.40;5.90;;;11.30;99.90;;;;;;5070581;28;20329;-93
2023/04/28 11:44:26;;;;;;;8.32;5.15;;;11.70;99.90;;;;;;5045004;28;21074;-92
2023/04/28 11:46:59;;;;;;;13.20;5.63;;;11.80;99.90;;;;;;5072771;28;20287;-93
2023/04/28 11:49:29;;;;;;;15.00;5.88;;;11.70;99.90;;;;;;5064912;28;20277;-94
2023/04/28 11:51:58;;;;;;;8.02;5.78;;;11.30;99.90;;;;;;5076101;28;20297;-93
2023/04/28 11:54:27;;;;;;;7.43;5.82;;;11.40;99.90;;;;;;5060730;28;20228;-93
2023/04/28 11:56:56;;;;;;;9.82;5.28;;;11.40;99.90;;;;;;5075612;28;20227;-94
2023/04/28 11:59:27;;;;;;;9.98;5.82;;;11.60;99.90;;;;;;5042905;28;20251;-94
2023/04/28 12:01:58;;;;;;;11.20;5.63;;;11.60;99.90;;;;;;5074341;28;20230;-95
2023/04/28 12:04:30;;;;;;;10.07;5.90;;;11.80;99.90;;;;;;5064133;28;20686;-93
2023/04/28 12:07:03;;;;;;;9.10;5.95;;;11.70;99.90;;;;;;5072323;28;20768;-94
2023/04/28 12:09:30;;;;;;;11.90;6.38;;;11.60;99.90;;;;;;5070686;28;20347;-94
2023/04/28 12:12:01;;;;;;;13.50;6.22;;;11.60;99.90;;;;;;5063249;22;20236;-94
2023/04/28 12:14:31;;;;;;;7.90;6.03;;;11.60;99.90;;;;;;5014079;28;22314;-96
2023/04/28 12:17:01;;;;;;;10.27;5.47;;;11.60;99.90;;;;;;5048720;28;21193;-94
2023/04/28 12:19:28;;;;;;;7.95;5.82;;;11.70;99.90;;;;;;5043688;28;20881;-94
2023/04/28 12:22:04;;;;;;;8.35;5.72;;;11.70;99.90;;;;;;5065764;22;20228;-95
2023/04/28 12:24:32;;;;;;;9.80;6.03;;;11.60;99.90;;;;;;5042610;28;20590;-94
2023/04/28 12:27:16;;;;;;;11.05;6.18;;;11.70;99.90;;;;;;5063835;28;21491;-94
2023/04/28 12:29:45;;;;;;;9.00;6.45;;;11.60;99.90;;;;;;5062335;28;20187;-93
2023/04/28 12:32:14;;;;;;;9.88;6.20;;;11.70;99.90;;;;;;5078798;28;20231;-94
2023/04/28 12:34:44;;;;;;;10.57;5.93;;;11.70;99.90;;;;;;5076183;28;20594;-94
2023/04/28 12:37:12;;;;;;;8.45;5.72;;;11.80;99.90;;;;;;5093542;28;20445;-91
2023/04/28 12:39:41;;;;;;;8.23;6.00;;;11.80;99.90;;;;;;5063927;28;20696;-95
2023/04/28 12:42:08;;;;;;;9.18;6.53;;;11.90;99.90;;;;;;5074957;28;20219;-94
2023/04/28 12:44:37;;;;;;;6.68;5.72;;;11.90;99.90;;;;;;5069039;28;20211;-95
2023/04/28 12:47:06;;;;;;;6.82;5.85;;;11.90;99.90;;;;;;5042949;28;20219;-92
2023/04/28 12:49:36;;;;;;;8.10;6.10;;;12.00;99.90;;;;;;5054095;28;21348;-94
2023/04/28 12:52:04;;;;;;;6.38;5.57;;;12.00;99.90;;;;;;5051580;28;20211;-94
2023/04/28 12:54:32;;;;;;;6.20;5.47;;;12.00;99.90;;;;;;5092301;28;20616;-95
2023/04/28 12:56:59;;;;;;;7.78;6.53;;;12.00;99.90;;;;;;5077793;28;20318;-94
2023/04/28 12:59:26;;;;;;;7.93;5.95;;;12.10;99.90;;;;;;5049103;28;20695;-94